Time;durP1;ratioP1;P1;durP2;ratioP2;P2;SDS_P1;SDS_P2;PMS_P1;PMS_P2;Temp;Humidity;BMP_temperature;BMP_pressure;BME280_temperature;BME280_humidity;BME280_pressure;Samples;Min_cycle;Max_cycle;Signal;HPM_P1;HPM_P2
2023/06/15 00:00:44;;;;;;;4.40;3.97;;;15.80;99.90;;;;;;5001238;28;91680;-34
2023/06/15 00:03:10;;;;;;;6.95;3.85;;;15.80;99.90;;;;;;4999710;28;89844;-36
2023/06/15 00:05:36;;;;;;;5.72;3.95;;;15.80;99.90;;;;;;5000338;28;89570;-34
2023/06/15 00:08:01;;;;;;;7.30;4.78;;;15.70;99.90;;;;;;4981999;28;89161;-34
2023/06/15 00:10:27;;;;;;;5.47;3.95;;;15.70;99.90;;;;;;4999356;28;90206;-34
2023/06/15 00:12:52;;;;;;;6.10;4.88;;;15.70;99.90;;;;;;5000601;28;89568;-34
2023/06/15 00:15:18;;;;;;;7.10;3.38;;;15.70;99.90;;;;;;5000030;28;89544;-33
2023/06/15 00:17:44;;;;;;;4.07;3.67;;;15.60;99.90;;;;;;5000825;28;90465;-36
2023/06/15 00:20:13;;;;;;;6.00;4.65;;;15.50;99.90;;;;;;4999301;28;90026;-34
2023/06/15 00:22:41;;;;;;;4.15;3.78;;;15.60;99.90;;;;;;4999091;28;90937;-36
2023/06/15 00:25:08;;;;;;;4.55;4.15;;;15.50;99.90;;;;;;4999912;28;90771;-35
2023/06/15 00:27:36;;;;;;;4.72;3.85;;;15.50;99.90;;;;;;5000486;28;89102;-33
2023/06/15 00:30:04;;;;;;;8.57;3.67;;;15.50;99.90;;;;;;4998673;28;90209;-36
2023/06/15 00:32:30;;;;;;;6.15;4.45;;;15.40;99.90;;;;;;4997993;28;90254;-36
2023/06/15 00:34:56;;;;;;;7.95;4.40;;;15.40;99.90;;;;;;4999142;28;89606;-35
2023/06/15 00:37:21;;;;;;;7.32;3.83;;;15.30;99.90;;;;;;4999044;28;88027;-39
2023/06/15 00:39:47;;;;;;;15.05;4.80;;;15.30;99.90;;;;;;4998425;28;90363;-36
2023/06/15 00:42:13;;;;;;;5.15;4.60;;;15.30;99.90;;;;;;4998194;28;89982;-35
2023/06/15 00:44:38;;;;;;;5.18;3.83;;;15.30;99.90;;;;;;4981283;28;93306;-34
2023/06/15 00:47:04;;;;;;;7.00;5.05;;;15.20;99.90;;;;;;4997502;28;89932;-36
2023/06/15 00:49:32;;;;;;;5.30;4.45;;;15.20;99.90;;;;;;4998749;28;90244;-33
2023/06/15 00:51:58;;;;;;;7.18;5.32;;;15.10;99.90;;;;;;4996562;28;91275;-34
2023/06/15 00:54:24;;;;;;;5.20;4.57;;;15.10;99.90;;;;;;4998143;28;88324;-33
2023/06/15 00:56:51;;;;;;;4.38;3.97;;;15.00;99.90;;;;;;4975131;28;87887;-32
2023/06/15 00:59:17;;;;;;;6.70;4.70;;;15.00;99.90;;;;;;4998184;28;89937;-34
2023/06/15 01:01:44;;;;;;;6.63;4.50;;;15.00;99.90;;;;;;4996690;28;90378;-34
2023/06/15 01:04:10;;;;;;;9.80;4.53;;;14.90;99.90;;;;;;4990591;28;88726;-36
2023/06/15 01:06:41;;;;;;;4.80;3.90;;;14.90;99.90;;;;;;4992083;28;89341;-35
2023/06/15 01:09:09;;;;;;;5.55;3.63;;;14.90;99.90;;;;;;4979427;28;90542;-37
2023/06/15 01:11:35;;;;;;;6.43;4.80;;;14.90;99.90;;;;;;4981600;28;91128;-32
2023/06/15 01:14:03;;;;;;;7.38;5.35;;;14.80;99.90;;;;;;4989695;28;89883;-39
2023/06/15 01:16:37;;;;;;;10.88;4.68;;;14.80;99.90;;;;;;4982949;28;90323;-34
2023/06/15 01:19:08;;;;;;;5.65;5.15;;;14.80;99.90;;;;;;4998767;28;90115;-33
2023/06/15 01:21:34;;;;;;;4.95;4.50;;;14.80;99.90;;;;;;4997638;28;89581;-32
2023/06/15 01:24:20;;;;;;;6.47;4.00;;;14.70;99.90;;;;;;4990864;28;89765;-37
2023/06/15 01:26:50;;;;;;;7.25;5.07;;;14.70;99.90;;;;;;4975751;28;88703;-38
2023/06/15 01:29:17;;;;;;;4.88;4.03;;;14.70;99.90;;;;;;4997357;28;90083;-34
2023/06/15 01:31:43;;;;;;;4.85;4.45;;;14.70;99.90;;;;;;4990606;28;88846;-36
2023/06/15 01:34:09;;;;;;;4.70;4.30;;;14.60;99.90;;;;;;4995464;28;89664;-37
2023/06/15 01:36:36;;;;;;;7.32;4.82;;;14.60;99.90;;;;;;4995930;28;89824;-35
2023/06/15 01:39:02;;;;;;;7.07;4.13;;;14.60;99.90;;;;;;4998134;28;90290;-38
2023/06/15 01:41:28;;;;;;;6.07;4.15;;;14.60;99.90;;;;;;4997899;28;90214;-38
2023/06/15 01:43:56;;;;;;;4.97;4.47;;;14.50;99.90;;;;;;4995717;28;89273;-35
2023/06/15 01:46:24;;;;;;;7.40;5.20;;;14.50;99.90;;;;;;4993318;28;89467;-33
2023/06/15 01:48:51;;;;;;;6.00;5.43;;;14.50;99.90;;;;;;4998095;28;90079;-34
2023/06/15 01:51:17;;;;;;;5.40;4.50;;;14.40;99.90;;;;;;4998227;28;89538;-34
2023/06/15 01:53:43;;;;;;;5.38;4.88;;;14.40;99.90;;;;;;4997662;28;89098;-32
2023/06/15 01:56:09;;;;;;;7.35;5.13;;;14.30;99.90;;;;;;4997944;28;88666;-37
2023/06/15 01:58:35;;;;;;;8.15;5.10;;;14.30;99.90;;;;;;4998036;28;90303;-33
2023/06/15 02:01:00;;;;;;;8.57;4.57;;;14.30;99.90;;;;;;4997392;28;89874;-33
2023/06/15 02:03:26;;;;;;;9.55;5.22;;;14.30;99.90;;;;;;4994624;28;90132;-39
2023/06/15 02:05:52;;;;;;;7.43;4.82;;;14.30;99.90;;;;;;4988562;28;88394;-34
2023/06/15 02:08:17;;;;;;;7.15;5.15;;;14.20;99.90;;;;;;4996998;28;89947;-34
2023/06/15 02:10:43;;;;;;;10.55;6.07;;;14.20;99.90;;;;;;4998128;28;90008;-35
2023/06/15 02:13:11;;;;;;;5.78;5.15;;;14.20;99.90;;;;;;4997321;28;90344;-33
2023/06/15 02:15:38;;;;;;;;;;;14.20;99.90;;;;;;4998671;28;89140;-34
2023/06/15 02:18:11;;;;;;;6.30;5.18;;;14.20;99.90;;;;;;4999434;28;90359;-39
2023/06/15 02:20:40;;;;;;;5.78;5.05;;;14.10;99.90;;;;;;4987733;28;89344;-34
2023/06/15 02:23:06;;;;;;;5.50;4.90;;;14.10;99.90;;;;;;4982245;28;89018;-34
2023/06/15 02:25:31;;;;;;;9.13;5.50;;;14.10;99.90;;;;;;4980520;28;89764;-36
2023/06/15 02:27:57;;;;;;;7.35;5.70;;;14.10;99.90;;;;;;4979876;28;90247;-33
2023/06/15 02:30:25;;;;;;;9.63;5.65;;;14.00;99.90;;;;;;4992031;28;89632;-38
2023/06/15 02:32:52;;;;;;;6.22;5.63;;;14.00;99.90;;;;;;4998366;28;88973;-34
2023/06/15 02:35:18;;;;;;;7.30;6.60;;;14.00;99.90;;;;;;4998648;28;88621;-35
2023/06/15 02:37:44;;;;;;;7.70;6.07;;;14.00;99.90;;;;;;4997931;28;90993;-35
2023/06/15 02:40:10;;;;;;;9.73;5.85;;;13.90;99.90;;;;;;4998250;28;89940;-31
2023/06/15 02:42:37;;;;;;;6.50;5.85;;;13.80;99.90;;;;;;4998248;28;89465;-33
2023/06/15 02:45:06;;;;;;;8.15;6.70;;;13.80;99.90;;;;;;4998748;28;90143;-34
2023/06/15 02:47:32;;;;;;;8.68;6.88;;;13.70;99.90;;;;;;4997851;28;91213;-34
2023/06/15 02:49:59;;;;;;;6.07;5.43;;;13.70;99.90;;;;;;4997915;28;89662;-32
2023/06/15 02:52:26;;;;;;;7.10;6.38;;;13.70;99.90;;;;;;4997025;28;90395;-37
2023/06/15 02:54:52;;;;;;;8.30;6.38;;;13.70;99.90;;;;;;4999851;28;88391;-33
2023/06/15 02:57:17;;;;;;;8.73;6.95;;;13.70;99.90;;;;;;4983180;28;89060;-34
2023/06/15 02:59:44;;;;;;;9.02;5.30;;;13.70;99.90;;;;;;5002340;28;89826;-33
2023/06/15 03:02:10;;;;;;;6.55;5.95;;;13.70;99.90;;;;;;5013356;28;88587;-34
2023/06/15 03:04:44;;;;;;;7.00;6.07;;;13.60;99.90;;;;;;5001791;28;89247;-34
2023/06/15 03:07:11;;;;;;;7.97;6.90;;;13.60;99.90;;;;;;5001217;28;90059;-39
2023/06/15 03:09:36;;;;;;;8.32;6.05;;;13.60;99.90;;;;;;5001386;28;90101;-36
2023/06/15 03:12:02;;;;;;;10.52;6.53;;;13.50;99.90;;;;;;4987564;28;89616;-32
2023/06/15 03:14:28;;;;;;;11.60;5.97;;;13.50;99.90;;;;;;5000958;28;88118;-34
2023/06/15 03:16:55;;;;;;;7.22;6.47;;;13.50;99.90;;;;;;5001464;28;89293;-32
2023/06/15 03:19:21;;;;;;;11.15;6.75;;;13.50;99.90;;;;;;5006854;28;89885;-32
2023/06/15 03:21:47;;;;;;;10.02;7.10;;;13.40;99.90;;;;;;5001473;28;89379;-35
2023/06/15 03:24:13;;;;;;;11.55;6.70;;;13.40;99.90;;;;;;5001266;28;89466;-37
2023/06/15 03:26:42;;;;;;;10.27;8.65;;;13.50;99.90;;;;;;4987764;28;90274;-37
2023/06/15 03:29:07;;;;;;;7.53;5.65;;;13.50;99.90;;;;;;5000357;28;89768;-35
2023/06/15 03:31:40;;;;;;;9.98;6.60;;;13.50;99.90;;;;;;5000604;28;90322;-33
2023/06/15 03:34:10;;;;;;;10.80;6.97;;;13.50;99.90;;;;;;5001363;28;88547;-37
2023/06/15 03:36:36;;;;;;;9.93;5.82;;;13.50;99.90;;;;;;5000709;28;90737;-38
2023/06/15 03:39:02;;;;;;;8.60;7.38;;;13.50;99.90;;;;;;5000051;28;90696;-37
2023/06/15 03:41:30;;;;;;;10.63;8.93;;;13.50;99.90;;;;;;5000249;28;90470;-38
2023/06/15 03:43:55;;;;;;;8.63;7.75;;;13.50;99.90;;;;;;5000791;28;87745;-35
2023/06/15 03:46:21;;;;;;;10.07;7.32;;;13.50;99.90;;;;;;5000335;28;91884;-35
2023/06/15 03:48:48;;;;;;;12.00;7.03;;;13.50;99.90;;;;;;5000253;28;89532;-37
2023/06/15 03:51:13;;;;;;;10.65;7.55;;;13.50;99.90;;;;;;5000333;28;89857;-37
2023/06/15 03:53:42;;;;;;;10.00;8.00;;;13.50;99.90;;;;;;5000332;28;89126;-38
2023/06/15 03:56:07;;;;;;;10.13;7.07;;;13.50;99.90;;;;;;4999770;28;91418;-32
2023/06/15 03:58:33;;;;;;;8.35;6.75;;;13.50;99.90;;;;;;5000883;28;89917;-35
2023/06/15 04:01:00;;;;;;;8.32;6.72;;;13.60;99.90;;;;;;4999412;28;89908;-35
2023/06/15 04:03:26;;;;;;;7.55;6.45;;;13.70;99.90;;;;;;4999467;28;89097;-35
2023/06/15 04:05:52;;;;;;;9.68;7.43;;;13.70;99.90;;;;;;4998704;28;89856;-34
2023/06/15 04:08:18;;;;;;;10.65;8.18;;;13.70;99.90;;;;;;4999571;28;89645;-37
2023/06/15 04:10:44;;;;;;;9.25;8.23;;;13.70;99.90;;;;;;5000251;28;89517;-33
2023/06/15 04:13:09;;;;;;;8.95;7.95;;;13.70;99.90;;;;;;5000414;28;88425;-35
2023/06/15 04:15:35;;;;;;;9.10;8.30;;;13.80;99.90;;;;;;5000550;28;90806;-35
2023/06/15 04:18:01;;;;;;;13.75;7.75;;;13.80;99.90;;;;;;4999939;28;89700;-33
2023/06/15 04:20:30;;;;;;;9.23;8.27;;;13.90;99.90;;;;;;4999830;28;89516;-33
2023/06/15 04:22:59;;;;;;;18.10;7.93;;;14.00;99.90;;;;;;4999546;28;89532;-37
2023/06/15 04:25:27;;;;;;;10.40;8.65;;;14.00;99.90;;;;;;5000010;28;90058;-39
2023/06/15 04:27:53;;;;;;;9.60;7.55;;;14.10;99.90;;;;;;4981320;28;91156;-33
2023/06/15 04:30:24;;;;;;;8.73;7.75;;;14.20;99.90;;;;;;5025863;22;90507;-33
2023/06/15 04:32:57;;;;;;;7.93;7.13;;;14.20;99.90;;;;;;4999921;28;89579;-33
2023/06/15 04:35:24;;;;;;;9.15;7.78;;;14.30;99.90;;;;;;5003486;28;90192;-34
2023/06/15 04:37:52;;;;;;;12.82;8.23;;;14.40;99.90;;;;;;5011432;27;89806;-32
2023/06/15 04:40:20;;;;;;;13.32;8.98;;;14.50;99.90;;;;;;5019481;28;88908;-34
2023/06/15 04:42:45;;;;;;;13.27;8.80;;;14.60;99.90;;;;;;5018602;28;88997;-38
2023/06/15 04:45:11;;;;;;;8.70;7.55;;;14.70;99.90;;;;;;5019629;28;90218;-36
2023/06/15 04:47:37;;;;;;;12.05;8.65;;;14.90;99.90;;;;;;5019742;28;90464;-33
2023/06/15 04:50:03;;;;;;;10.05;8.32;;;15.00;99.90;;;;;;5019682;28;89540;-36
2023/06/15 04:52:29;;;;;;;9.77;8.15;;;15.10;99.90;;;;;;5019186;28;90466;-38
2023/06/15 04:54:55;;;;;;;10.68;7.70;;;15.20;99.90;;;;;;5019305;28;91005;-38
2023/06/15 04:57:20;;;;;;;8.65;7.80;;;15.30;99.90;;;;;;5000822;28;90089;-38
2023/06/15 04:59:46;;;;;;;11.80;8.30;;;15.50;99.90;;;;;;5019701;28;90452;-34
2023/06/15 05:02:12;;;;;;;7.75;7.00;;;15.60;99.90;;;;;;5019652;28;88184;-35
2023/06/15 05:04:37;;;;;;;8.73;7.60;;;15.70;99.90;;;;;;5019581;28;90225;-37
2023/06/15 05:07:03;;;;;;;8.77;7.65;;;15.80;99.90;;;;;;5018800;28;89842;-38
2023/06/15 05:09:29;;;;;;;11.13;7.75;;;15.90;99.90;;;;;;5019755;28;89304;-34
2023/06/15 05:11:55;;;;;;;7.75;6.88;;;16.00;99.90;;;;;;5018837;28;87714;-34
2023/06/15 05:14:21;;;;;;;12.02;8.35;;;16.10;99.90;;;;;;5019209;28;89928;-37
2023/06/15 05:16:46;;;;;;;9.88;6.97;;;16.20;99.90;;;;;;5018712;27;91258;-34
2023/06/15 05:19:12;;;;;;;8.55;7.57;;;16.30;99.90;;;;;;5018494;28;90376;-34
2023/06/15 05:21:38;;;;;;;10.50;7.93;;;16.40;99.90;;;;;;5019895;28;89745;-37
2023/06/15 05:24:03;;;;;;;9.23;8.00;;;16.60;99.90;;;;;;5018994;28;90109;-38
2023/06/15 05:26:29;;;;;;;8.82;7.90;;;16.80;99.90;;;;;;5021503;27;89392;-36
2023/06/15 05:28:55;;;;;;;8.18;7.30;;;16.90;99.90;;;;;;5026275;27;90483;-33
2023/06/15 05:31:20;;;;;;;11.80;8.35;;;17.10;99.90;;;;;;5027176;27;89220;-34
2023/06/15 05:33:46;;;;;;;10.85;7.57;;;17.30;99.90;;;;;;5017520;28;90164;-35
2023/06/15 05:36:11;;;;;;;7.38;6.68;;;17.50;99.90;;;;;;5015415;28;89786;-36
2023/06/15 05:38:37;;;;;;;9.45;7.28;;;17.70;99.90;;;;;;5017293;28;89853;-37
2023/06/15 05:41:02;;;;;;;9.82;6.85;;;17.80;99.90;;;;;;5016045;28;89413;-38
2023/06/15 05:43:28;;;;;;;8.70;6.70;;;17.80;99.90;;;;;;5016772;28;90386;-38
2023/06/15 05:45:54;;;;;;;14.98;7.07;;;18.10;99.90;;;;;;5016535;28;89699;-37
2023/06/15 05:48:19;;;;;;;7.55;6.43;;;18.10;99.90;;;;;;5016681;28;89106;-38
2023/06/15 05:50:45;;;;;;;11.60;6.35;;;18.10;99.90;;;;;;5017472;28;89235;-36
2023/06/15 05:53:11;;;;;;;6.55;5.93;;;18.30;99.90;;;;;;5015806;28;89609;-35
2023/06/15 05:55:37;;;;;;;7.10;6.40;;;18.40;99.90;;;;;;5017560;28;89548;-35
2023/06/15 05:58:03;;;;;;;9.38;6.28;;;18.70;99.90;;;;;;5017274;28;89372;-38
2023/06/15 06:00:30;;;;;;;7.28;5.75;;;18.80;99.90;;;;;;5016258;28;89421;-39
2023/06/15 06:02:56;;;;;;;10.93;5.88;;;19.00;99.90;;;;;;5016957;28;90218;-37
2023/06/15 06:05:23;;;;;;;6.05;5.55;;;19.20;99.90;;;;;;5016337;28;90446;-35
2023/06/15 06:07:49;;;;;;;6.65;5.72;;;19.40;99.90;;;;;;5016250;28;90769;-34
2023/06/15 06:10:18;;;;;;;7.60;6.15;;;19.50;99.90;;;;;;5016365;28;88030;-34
2023/06/15 06:12:44;;;;;;;7.00;6.25;;;19.60;99.90;;;;;;5016542;28;89948;-37
2023/06/15 06:15:10;;;;;;;11.05;6.38;;;19.70;99.90;;;;;;5024890;27;89354;-33
2023/06/15 06:17:36;;;;;;;6.35;5.40;;;19.80;99.90;;;;;;5017031;28;89546;-40
2023/06/15 06:20:02;;;;;;;7.13;6.43;;;20.00;99.90;;;;;;5016487;28;88622;-36
2023/06/15 06:22:28;;;;;;;10.40;5.93;;;20.10;99.90;;;;;;5015966;28;91081;-36
2023/06/15 06:24:53;;;;;;;6.15;5.55;;;20.30;99.90;;;;;;5016623;28;90698;-36
2023/06/15 06:27:19;;;;;;;7.95;6.57;;;20.40;99.90;;;;;;5016218;28;88586;-34
2023/06/15 06:29:45;;;;;;;8.35;5.70;;;20.50;99.90;;;;;;5012036;27;88908;-35
2023/06/15 06:32:10;;;;;;;6.15;5.55;;;20.60;99.90;;;;;;5000771;28;90385;-35
2023/06/15 06:34:36;;;;;;;5.07;4.60;;;20.90;97.90;;;;;;4983601;28;88777;-39
2023/06/15 06:37:05;;;;;;;7.95;5.97;;;20.90;98.70;;;;;;5001158;28;89641;-33
2023/06/15 06:39:32;;;;;;;12.13;5.65;;;21.10;95.10;;;;;;5001130;28;88078;-35
2023/06/15 06:41:58;;;;;;;6.50;5.35;;;21.10;96.00;;;;;;4999735;28;90122;-38
2023/06/15 06:44:23;;;;;;;6.18;5.28;;;21.00;92.90;;;;;;5001038;28;89981;-35
2023/06/15 06:46:49;;;;;;;7.90;4.72;;;21.20;93.00;;;;;;5001109;28;88870;-35
2023/06/15 06:49:15;;;;;;;7.68;4.60;;;21.30;92.70;;;;;;4982455;28;88969;-38
2023/06/15 06:51:41;;;;;;;7.13;4.78;;;21.40;92.50;;;;;;5001296;28;90372;-35
2023/06/15 06:54:06;;;;;;;7.70;4.30;;;21.80;90.80;;;;;;5000810;28;90544;-35
2023/06/15 06:56:32;;;;;;;8.20;4.85;;;21.60;83.70;;;;;;5000751;28;89373;-37
2023/06/15 06:58:58;;;;;;;6.00;4.57;;;21.60;81.80;;;;;;5002047;28;88825;-36
2023/06/15 07:01:24;;;;;;;9.35;4.70;;;21.70;78.90;;;;;;5000303;28;90270;-36
2023/06/15 07:03:49;;;;;;;5.80;4.80;;;21.80;76.50;;;;;;5001788;28;89660;-35
2023/06/15 07:06:15;;;;;;;8.20;4.78;;;22.10;74.60;;;;;;4998925;28;89256;-34
2023/06/15 07:08:41;;;;;;;4.40;4.00;;;22.40;74.00;;;;;;4998991;28;90169;-33
2023/06/15 07:11:06;;;;;;;7.50;5.07;;;22.50;74.80;;;;;;5002649;28;90251;-36
2023/06/15 07:13:32;;;;;;;5.22;4.60;;;22.50;70.80;;;;;;5008942;28;90271;-34
2023/06/15 07:15:58;;;;;;;10.00;4.90;;;22.60;72.50;;;;;;5013051;28;90527;-37
2023/06/15 07:18:25;;;;;;;6.20;4.65;;;22.90;70.50;;;;;;5014198;28;90635;-38
2023/06/15 07:20:53;;;;;;;7.05;4.18;;;23.20;70.80;;;;;;5013803;28;89724;-34
2023/06/15 07:23:23;;;;;;;9.30;5.13;;;23.20;71.40;;;;;;4997970;28;89267;-34
2023/06/15 07:25:52;;;;;;;4.80;4.15;;;23.40;71.30;;;;;;5002344;28;89765;-34
2023/06/15 07:28:19;;;;;;;6.55;4.60;;;23.60;69.70;;;;;;5016274;28;88363;-34
2023/06/15 07:30:46;;;;;;;7.25;4.57;;;23.50;67.60;;;;;;5012776;28;91055;-36
2023/06/15 07:33:12;;;;;;;5.97;4.90;;;23.50;68.00;;;;;;5008110;28;89106;-36
2023/06/15 07:35:38;;;;;;;4.70;4.18;;;23.60;67.80;;;;;;5009223;28;89914;-33
2023/06/15 07:38:04;;;;;;;4.60;4.22;;;23.50;68.00;;;;;;5014250;28;89362;-38
2023/06/15 07:40:29;;;;;;;10.48;4.80;;;23.60;67.70;;;;;;5004958;28;89658;-35
2023/06/15 07:42:55;;;;;;;5.88;4.68;;;23.70;67.50;;;;;;4999332;28;90923;-36
2023/06/15 07:45:21;;;;;;;7.20;4.15;;;24.00;67.50;;;;;;5001834;28;90026;-36
2023/06/15 07:47:46;;;;;;;14.35;5.35;;;24.00;65.60;;;;;;5000835;28;88542;-34
2023/06/15 07:50:12;;;;;;;9.50;5.50;;;24.20;64.00;;;;;;5001008;28;89878;-36
2023/06/15 07:52:37;;;;;;;5.75;4.43;;;24.40;64.50;;;;;;5000621;28;89593;-34
2023/06/15 07:55:04;;;;;;;11.07;5.07;;;24.20;64.30;;;;;;5001609;28;90669;-34
2023/06/15 07:57:30;;;;;;;5.20;4.75;;;24.50;64.50;;;;;;4998134;28;88361;-34
2023/06/15 07:59:57;;;;;;;5.65;4.65;;;24.40;62.80;;;;;;5001735;28;89820;-37
2023/06/15 08:02:22;;;;;;;5.82;3.55;;;24.20;62.50;;;;;;4988387;28;89728;-36
2023/06/15 08:04:48;;;;;;;6.53;5.20;;;24.40;63.90;;;;;;5000906;28;89219;-33
2023/06/15 08:07:14;;;;;;;4.18;3.75;;;24.50;62.60;;;;;;5011202;28;88853;-36
2023/06/15 08:09:40;;;;;;;5.82;4.05;;;24.50;63.30;;;;;;4998108;28;90013;-38
2023/06/15 08:12:06;;;;;;;6.25;4.22;;;24.60;62.90;;;;;;4998546;28;89646;-34
2023/06/15 08:14:31;;;;;;;9.82;5.38;;;24.40;61.60;;;;;;4997503;28;89401;-35
2023/06/15 08:16:57;;;;;;;3.97;3.63;;;24.70;62.30;;;;;;4998211;28;89017;-37
2023/06/15 08:19:22;;;;;;;4.53;3.72;;;24.60;60.40;;;;;;4997277;28;90302;-36
2023/06/15 08:21:48;;;;;;;6.38;4.35;;;24.70;61.40;;;;;;4997389;28;90425;-37
2023/06/15 08:24:13;;;;;;;4.97;3.63;;;24.70;59.70;;;;;;4973689;28;89802;-34
2023/06/15 08:26:40;;;;;;;5.78;4.72;;;24.90;60.80;;;;;;5011347;28;89354;-37
2023/06/15 08:29:07;;;;;;;6.13;3.65;;;24.90;58.80;;;;;;4998483;28;90602;-34
2023/06/15 08:31:34;;;;;;;4.88;4.05;;;25.20;59.10;;;;;;5017236;28;91220;-35
2023/06/15 08:33:59;;;;;;;8.73;3.97;;;25.10;59.60;;;;;;5003474;28;90375;-38
2023/06/15 08:36:25;;;;;;;5.60;3.88;;;25.10;58.70;;;;;;5005160;28;88842;-37
2023/06/15 08:38:50;;;;;;;4.53;4.07;;;25.20;59.10;;;;;;5016387;28;89866;-38
2023/06/15 08:41:17;;;;;;;4.75;4.32;;;25.30;58.80;;;;;;4998088;28;89437;-34
2023/06/15 08:43:45;;;;;;;5.93;4.28;;;25.10;58.20;;;;;;4997671;28;89497;-33
2023/06/15 08:46:11;;;;;;;7.38;4.68;;;25.20;58.10;;;;;;5004924;28;88859;-37
2023/06/15 08:48:39;;;;;;;6.50;3.97;;;25.40;58.30;;;;;;5016990;28;89794;-35
2023/06/15 08:51:07;;;;;;;4.93;4.22;;;25.40;57.80;;;;;;5009349;28;89718;-36
2023/06/15 08:53:33;;;;;;;5.32;4.50;;;25.40;58.80;;;;;;4998543;28;89110;-36
2023/06/15 08:55:59;;;;;;;4.68;4.25;;;25.50;58.30;;;;;;5016802;28;89166;-36
2023/06/15 08:58:25;;;;;;;4.00;3.40;;;25.80;57.30;;;;;;5014927;28;90680;-34
2023/06/15 09:00:53;;;;;;;8.68;4.80;;;25.60;56.50;;;;;;5005399;28;89828;-34
2023/06/15 09:03:19;;;;;;;5.75;4.43;;;25.70;57.90;;;;;;5000800;28;90315;-36
2023/06/15 09:05:45;;;;;;;4.57;4.07;;;26.10;56.90;;;;;;4997505;28;88006;-36
2023/06/15 09:08:11;;;;;;;6.55;4.22;;;26.00;55.60;;;;;;4998514;28;91044;-37
2023/06/15 09:10:38;;;;;;;4.60;3.70;;;25.90;57.40;;;;;;5016188;28;90121;-34
2023/06/15 09:13:03;;;;;;;6.63;4.25;;;25.90;54.50;;;;;;5016980;28;88299;-37
2023/06/15 09:15:30;;;;;;;8.07;3.88;;;25.90;53.60;;;;;;5017004;28;88486;-33
2023/06/15 09:18:01;;;;;;;4.10;3.70;;;25.70;53.80;;;;;;5016368;28;89962;-37
2023/06/15 09:20:29;;;;;;;6.25;4.18;;;25.90;53.80;;;;;;5015715;28;90341;-35
2023/06/15 09:23:02;;;;;;;5.00;4.15;;;26.00;55.40;;;;;;5016093;28;90352;-37
2023/06/15 09:25:33;;;;;;;4.22;3.80;;;25.80;54.80;;;;;;5016737;28;90102;-36
2023/06/15 09:28:04;;;;;;;4.40;4.03;;;25.70;53.80;;;;;;5016233;28;90574;-36
2023/06/15 09:30:39;;;;;;;5.82;4.72;;;25.90;54.80;;;;;;5016410;28;89540;-34
2023/06/15 09:33:15;;;;;;;4.97;4.57;;;26.00;54.90;;;;;;5009894;28;89242;-34
2023/06/15 09:36:02;;;;;;;8.50;4.55;;;26.00;53.10;;;;;;4998100;28;88738;-34
2023/06/15 09:38:31;;;;;;;3.85;3.40;;;25.90;53.60;;;;;;5017116;28;89583;-35
2023/06/15 09:41:01;;;;;;;4.60;3.90;;;25.90;53.90;;;;;;5011841;28;89246;-35
2023/06/15 09:43:33;;;;;;;5.50;4.53;;;26.10;55.00;;;;;;4996449;28;89829;-36
2023/06/15 09:46:00;;;;;;;6.75;3.67;;;26.20;53.50;;;;;;4996505;28;88973;-36
2023/06/15 09:48:26;;;;;;;7.53;3.70;;;26.40;54.40;;;;;;4996827;28;90185;-38
2023/06/15 09:50:52;;;;;;;5.47;4.03;;;26.20;52.20;;;;;;4996787;28;89741;-36
2023/06/15 09:53:19;;;;;;;5.88;3.88;;;26.00;52.10;;;;;;4996900;28;89520;-37
2023/06/15 09:55:48;;;;;;;5.20;4.03;;;26.10;52.80;;;;;;4997310;28;90233;-37
2023/06/15 09:58:14;;;;;;;4.95;4.13;;;25.70;52.10;;;;;;4996555;28;90078;-36
2023/06/15 10:00:40;;;;;;;4.88;4.35;;;26.00;53.10;;;;;;4983292;28;89767;-37
2023/06/15 10:03:09;;;;;;;4.43;4.03;;;25.90;52.30;;;;;;4998803;28;88593;-33
2023/06/15 10:05:44;;;;;;;7.80;4.05;;;26.00;53.10;;;;;;4987439;28;88671;-38
2023/06/15 10:08:12;;;;;;;6.00;4.10;;;26.10;52.40;;;;;;4999907;28;91851;-36
2023/06/15 10:10:41;;;;;;;10.18;4.63;;;26.10;52.00;;;;;;4999533;28;90775;-36
2023/06/15 10:13:13;;;;;;;6.88;4.60;;;26.10;52.10;;;;;;4980936;28;91050;-34
2023/06/15 10:15:45;;;;;;;6.03;4.82;;;26.50;53.50;;;;;;5000957;28;90041;-34
2023/06/15 10:18:13;;;;;;;5.18;4.63;;;26.60;52.30;;;;;;4999613;28;89663;-37
2023/06/15 10:20:40;;;;;;;7.10;4.70;;;26.50;52.50;;;;;;5011366;28;89347;-32
2023/06/15 10:23:13;;;;;;;5.38;4.10;;;26.50;52.20;;;;;;5014560;28;90197;-34
2023/06/15 10:25:42;;;;;;;5.03;3.92;;;26.20;51.00;;;;;;5001312;28;88275;-33
2023/06/15 10:28:12;;;;;;;6.50;3.55;;;26.30;49.50;;;;;;4999763;28;92116;-36
2023/06/15 10:30:53;;;;;;;19.45;4.63;;;26.30;50.60;;;;;;5012291;28;89447;-33
2023/06/15 10:33:46;;;;;;;6.68;4.40;;;26.60;53.30;;;;;;4996155;28;89933;-37
2023/06/15 10:36:30;;;;;;;5.97;3.83;;;26.70;52.60;;;;;;5018319;28;90065;-35
2023/06/15 10:38:58;;;;;;;4.60;3.60;;;26.50;51.00;;;;;;5019038;28;90087;-37
2023/06/15 10:41:24;;;;;;;5.60;4.65;;;26.20;50.60;;;;;;5019004;28;90091;-37
2023/06/15 10:43:59;;;;;;;4.55;4.15;;;26.10;51.90;;;;;;5018131;28;90207;-35
2023/06/15 10:46:28;;;;;;;5.20;4.18;;;26.00;52.10;;;;;;5019021;28;88368;-37
2023/06/15 10:48:55;;;;;;;5.15;4.72;;;25.90;52.60;;;;;;5018022;28;90010;-35
2023/06/15 10:51:25;;;;;;;5.18;4.22;;;26.10;51.50;;;;;;5019032;28;88993;-37
2023/06/15 10:53:50;;;;;;;5.10;4.15;;;26.20;51.50;;;;;;5014837;28;89191;-36
2023/06/15 10:56:28;;;;;;;6.75;5.05;;;26.00;51.30;;;;;;5009401;28;88896;-36
2023/06/15 10:59:04;;;;;;;7.95;4.18;;;26.00;51.50;;;;;;5018411;28;90251;-33
2023/06/15 11:01:34;;;;;;;4.13;3.63;;;25.60;50.80;;;;;;5018343;28;90678;-33
2023/06/15 11:04:21;;;;;;;5.07;4.57;;;25.90;51.00;;;;;;4993768;28;89538;-37
2023/06/15 11:06:56;;;;;;;5.27;4.77;;;26.00;52.10;;;;;;4998809;28;88178;-36
2023/06/15 11:09:24;;;;;;;4.60;3.50;;;26.20;52.00;;;;;;4998148;28;90763;-39
2023/06/15 11:11:50;;;;;;;4.43;4.10;;;26.10;52.00;;;;;;4980982;28;89691;-35
2023/06/15 11:14:19;;;;;;;5.45;4.07;;;25.90;50.50;;;;;;4998944;28;89365;-35
2023/06/15 11:16:45;;;;;;;4.15;3.78;;;25.90;51.10;;;;;;5016975;28;89619;-36
2023/06/15 11:19:13;;;;;;;5.85;4.07;;;26.20;52.00;;;;;;5018803;28;90261;-34
2023/06/15 11:21:57;;;;;;;3.92;3.55;;;26.20;51.50;;;;;;5018525;28;89742;-34
2023/06/15 11:24:25;;;;;;;6.63;4.53;;;26.10;50.20;;;;;;5017670;28;89971;-35
2023/06/15 11:26:52;;;;;;;4.10;3.70;;;26.00;50.30;;;;;;5018303;28;89085;-33
2023/06/15 11:29:25;;;;;;;5.13;3.90;;;26.10;50.60;;;;;;5017263;28;90896;-39
2023/06/15 11:31:54;;;;;;;7.28;5.22;;;25.90;50.10;;;;;;4990755;28;90304;-36
2023/06/15 11:34:20;;;;;;;11.15;3.92;;;25.70;50.40;;;;;;5014272;28;89946;-38
2023/06/15 11:36:46;;;;;;;4.40;4.00;;;25.80;49.70;;;;;;5008723;28;89168;-34
2023/06/15 11:39:22;;;;;;;15.95;3.78;;;25.80;50.30;;;;;;5014878;28;90300;-37
2023/06/15 11:41:53;;;;;;;4.22;3.83;;;26.10;51.90;;;;;;5018234;28;89776;-36
2023/06/15 11:44:20;;;;;;;10.60;4.70;;;26.10;50.20;;;;;;5016629;28;89699;-35
2023/06/15 11:47:00;;;;;;;8.93;4.67;;;26.20;50.70;;;;;;5018925;28;88893;-35
2023/06/15 11:49:32;;;;;;;4.55;3.97;;;25.90;49.90;;;;;;5018008;28;91039;-34
2023/06/15 11:51:58;;;;;;;4.10;3.70;;;25.90;50.20;;;;;;5017016;28;90529;-37
2023/06/15 11:54:25;;;;;;;5.30;3.85;;;26.00;50.20;;;;;;5008983;28;89997;-39
2023/06/15 11:56:51;;;;;;;6.17;4.10;;;26.10;50.80;;;;;;5012293;28;89443;-40
2023/06/15 11:59:19;;;;;;;7.07;3.88;;;25.90;49.60;;;;;;4997561;28;90296;-33
2023/06/15 12:01:45;;;;;;;3.85;3.35;;;25.90;50.00;;;;;;4998524;28;89541;-37
2023/06/15 12:04:12;;;;;;;7.00;4.55;;;25.90;49.50;;;;;;4998777;28;89606;-36
2023/06/15 12:06:38;;;;;;;;;;;26.00;50.80;;;;;;4998878;28;89081;-35
2023/06/15 12:09:07;;;;;;;6.32;3.95;;;25.90;49.90;;;;;;5000161;28;89830;-36
2023/06/15 12:11:33;;;;;;;4.50;4.00;;;25.80;50.60;;;;;;4998804;28;89757;-36
2023/06/15 12:14:10;;;;;;;4.43;4.03;;;25.80;50.20;;;;;;4998805;28;89476;-34
2023/06/15 12:16:37;;;;;;;4.75;4.25;;;25.60;49.30;;;;;;4998573;28;88637;-33
2023/06/15 12:19:03;;;;;;;5.43;4.47;;;25.50;50.20;;;;;;4998219;28;88456;-34
2023/06/15 12:21:33;;;;;;;6.27;3.93;;;25.60;50.60;;;;;;4999578;28;89348;-36
2023/06/15 12:24:00;;;;;;;4.18;3.78;;;25.80;51.00;;;;;;4998985;28;89818;-36
2023/06/15 12:26:32;;;;;;;7.47;3.90;;;25.80;50.20;;;;;;4999741;28;89628;-33
2023/06/15 12:28:59;;;;;;;8.60;3.83;;;25.60;51.10;;;;;;4998723;28;90459;-39
2023/06/15 12:31:35;;;;;;;12.68;4.63;;;25.80;51.40;;;;;;4979913;28;90523;-37
2023/06/15 12:34:08;;;;;;;4.05;3.60;;;25.70;50.00;;;;;;5000121;28;89890;-35
2023/06/15 12:36:36;;;;;;;4.50;3.70;;;25.70;49.60;;;;;;4998892;28;89511;-37
2023/06/15 12:39:08;;;;;;;;;;;25.90;49.30;;;;;;4999389;28;90732;-34
2023/06/15 12:41:38;;;;;;;3.95;3.30;;;26.00;49.20;;;;;;4999310;28;90345;-37
2023/06/15 12:44:05;;;;;;;4.82;4.32;;;26.00;48.80;;;;;;4998335;28;90043;-37
2023/06/15 12:46:33;;;;;;;4.77;3.90;;;26.00;48.80;;;;;;4998227;28;89874;-36